Time;durP1;ratioP1;P1;durP2;ratioP2;P2;SDS_P1;SDS_P2;PMS_P1;PMS_P2;Temp;Humidity;BMP_temperature;BMP_pressure;BME280_temperature;BME280_humidity;BME280_pressure;Samples;Min_cycle;Max_cycle;Signal;HPM_P1;HPM_P2
2022/01/18 00:00:03;;;;;;;6.80;1.90;;;;;;;0.64;63.89;100653.38;105284;1281;138118;-69
2022/01/18 00:02:55;;;;;;;8.50;1.90;;;;;;;0.64;63.78;100654.06;105318;1281;97909;-70
2022/01/18 00:05:28;;;;;;;6.20;2.00;;;;;;;0.63;63.75;100652.34;105254;1281;136810;-70
2022/01/18 00:08:00;;;;;;;4.00;1.50;;;;;;;0.63;63.87;100661.41;105430;1281;112413;-71
2022/01/18 00:10:34;;;;;;;6.10;1.90;;;;;;;0.63;63.77;100664.15;105314;1276;138827;-71
2022/01/18 00:13:35;;;;;;;7.20;2.30;;;;;;;0.63;63.66;100659.00;105769;1276;108796;-69
2022/01/18 00:16:13;;;;;;;10.40;2.20;;;;;;;0.61;63.87;100664.80;105691;1276;139060;-69
2022/01/18 00:18:49;;;;;;;6.30;1.90;;;;;;;0.60;63.91;100664.10;105830;1276;97829;-71
2022/01/18 00:21:31;;;;;;;5.50;2.00;;;;;;;0.58;63.55;100664.77;105799;1276;111784;-70
2022/01/18 00:24:06;;;;;;;5.60;1.90;;;;;;;0.57;63.82;100668.34;105709;1276;138625;-69
2022/01/18 00:26:38;;;;;;;5.80;2.00;;;;;;;0.55;63.72;100667.47;105815;1276;108834;-69
2022/01/18 00:29:13;;;;;;;4.70;2.00;;;;;;;0.53;63.78;100667.41;105685;1277;138840;-70
2022/01/18 00:32:04;;;;;;;6.90;2.40;;;;;;;0.52;63.85;100668.42;105848;1276;97820;-71
2022/01/18 00:34:38;;;;;;;9.30;2.30;;;;;;;0.49;64.01;100669.23;105692;1275;137460;-70
2022/01/18 00:37:26;;;;;;;9.10;3.00;;;;;;;0.48;64.06;100677.08;105818;1277;109227;-70
2022/01/18 00:39:58;;;;;;;5.10;2.10;;;;;;;0.48;63.90;100682.73;105678;1274;138551;-71
2022/01/18 00:42:30;;;;;;;7.40;2.90;;;;;;;0.46;64.14;100688.01;105893;1277;97830;-71
2022/01/18 00:45:03;;;;;;;8.40;2.50;;;;;;;0.45;64.13;100691.25;105778;1277;97807;-70
2022/01/18 00:47:35;;;;;;;10.80;2.40;;;;;;;0.44;64.21;100693.11;105928;1277;137978;-71
2022/01/18 00:50:10;;;;;;;7.00;2.40;;;;;;;0.42;64.41;100704.20;105926;1277;109066;-70
2022/01/18 00:52:42;;;;;;;10.90;3.00;;;;;;;0.40;64.50;100712.56;105596;1277;137927;-70
2022/01/18 00:55:14;;;;;;;8.90;2.80;;;;;;;0.39;64.43;100714.58;105902;1277;97861;-70
2022/01/18 00:57:46;;;;;;;8.60;2.90;;;;;;;0.36;64.83;100721.22;105655;1277;138025;-71
2022/01/18 01:00:19;;;;;;;8.20;3.30;;;;;;;0.36;64.83;100729.23;105843;1277;112865;-70
2022/01/18 01:02:51;;;;;;;6.90;2.90;;;;;;;0.36;64.84;100734.39;105855;1277;108909;-71
2022/01/18 01:05:23;;;;;;;7.40;3.60;;;;;;;0.38;65.05;100738.35;105647;1277;138659;-70
2022/01/18 01:07:55;;;;;;;8.30;3.20;;;;;;;0.40;64.94;100738.90;105822;1276;97929;-71
2022/01/18 01:10:36;;;;;;;8.80;3.30;;;;;;;0.40;64.99;100737.38;105720;1276;137668;-68
2022/01/18 01:13:09;;;;;;;8.40;3.30;;;;;;;0.43;65.02;100742.89;105696;1277;112484;-69
2022/01/18 01:16:00;;;;;;;11.00;3.50;;;;;;;0.41;64.90;100739.44;105905;1277;109076;-68
2022/01/18 01:18:43;;;;;;;9.60;3.50;;;;;;;0.39;64.85;100751.73;105858;1277;109281;-69
2022/01/18 01:33:08;;;;;;;9.90;4.20;;;;;;;0.12;65.16;100763.52;105831;1277;108910;-69
2022/01/18 01:35:50;;;;;;;11.20;4.20;;;;;;;0.02;65.42;100771.89;105820;1275;137722;-70
2022/01/18 01:44:06;;;;;;;15.70;4.80;;;;;;;-0.26;65.55;100779.89;105849;1277;108331;-70
2022/01/18 01:46:40;;;;;;;10.90;4.60;;;;;;;-0.33;65.70;100781.14;105766;1277;138302;-71
2022/01/18 01:49:14;;;;;;;11.40;4.60;;;;;;;-0.37;65.87;100784.09;105934;1277;97817;-70
2022/01/18 01:51:48;;;;;;;12.90;4.00;;;;;;;-0.42;66.13;100782.80;105755;1277;97848;-71
2022/01/18 01:54:20;;;;;;;9.10;4.00;;;;;;;-0.46;65.92;100782.56;105703;1277;138917;-70
2022/01/18 01:56:52;;;;;;;9.20;3.80;;;;;;;-0.48;66.32;100786.10;105765;1276;108855;-71
2022/01/18 01:59:24;;;;;;;8.70;3.90;;;;;;;-0.49;66.34;100789.34;105658;1275;138404;-70
2022/01/18 02:02:05;;;;;;;10.40;4.60;;;;;;;-0.52;66.44;100783.14;105892;1275;97848;-71
2022/01/18 02:04:38;;;;;;;11.10;4.90;;;;;;;-0.55;66.64;100779.96;105911;1277;138205;-71
2022/01/18 02:07:10;;;;;;;11.80;5.10;;;;;;;-0.59;66.68;100785.86;105914;1277;112897;-72
2022/01/18 02:09:42;;;;;;;9.90;4.90;;;;;;;-0.65;66.69;100788.81;106000;1276;109139;-70
2022/01/18 02:12:17;;;;;;;10.70;5.10;;;;;;;-0.72;66.61;100791.06;105798;1276;137967;-70
2022/01/18 02:14:55;;;;;;;10.10;5.00;;;;;;;-0.80;66.90;100795.83;105767;1277;97864;-70
2022/01/18 02:23:07;;;;;;;15.30;5.40;;;;;;;-1.07;67.62;100783.41;105696;1277;138320;-69
2022/01/18 02:25:40;;;;;;;10.80;5.10;;;;;;;-1.14;67.45;100784.42;105688;1277;109198;-69
2022/01/18 02:28:13;;;;;;;14.10;5.40;;;;;;;-1.23;67.93;100788.02;105771;1277;138517;-70
2022/01/18 02:30:46;;;;;;;10.30;4.70;;;;;;;-1.29;68.01;100792.45;105939;1277;97724;-69
2022/01/18 02:33:19;;;;;;;13.20;4.90;;;;;;;-1.35;68.17;100798.79;105996;1276;112593;-70
2022/01/18 02:35:51;;;;;;;16.70;5.00;;;;;;;-1.38;68.29;100799.91;106013;1276;138739;-70
2022/01/18 02:38:24;;;;;;;11.80;4.90;;;;;;;-1.37;68.66;100807.10;106132;1276;108464;-70
2022/01/18 02:40:57;;;;;;;11.60;5.40;;;;;;;-1.35;68.70;100808.00;105969;1276;139854;-70
2022/01/18 02:43:50;;;;;;;12.90;5.00;;;;;;;-1.34;68.48;100808.53;106084;1276;97756;-70
2022/01/18 02:46:23;;;;;;;16.00;6.20;;;;;;;-1.36;68.94;100804.57;105891;1276;139158;-70
2022/01/18 02:48:55;;;;;;;12.40;5.80;;;;;;;-1.38;68.95;100811.15;105902;1276;107868;-70
2022/01/18 02:51:27;;;;;;;16.60;5.90;;;;;;;-1.41;69.01;100811.45;105957;1277;107909;-71
2022/01/18 02:54:02;;;;;;;11.40;5.80;;;;;;;-1.45;68.95;100807.05;105700;1276;139460;-71
2022/01/18 02:56:37;;;;;;;14.30;6.00;;;;;;;-1.49;69.03;100806.60;106076;1276;97737;-69
2022/01/18 02:59:17;;;;;;;12.70;5.90;;;;;;;-1.54;69.33;100808.20;106037;1276;139250;-69
2022/01/18 03:04:42;;;;;;;12.20;5.00;;;;;;;-1.66;69.43;100806.69;105984;1275;139755;-69
2022/01/18 03:07:14;;;;;;;10.50;4.20;;;;;;;-1.70;69.61;100808.98;106115;1276;97806;-70
2022/01/18 03:09:46;;;;;;;9.90;4.30;;;;;;;-1.72;69.74;100808.93;105922;1276;97858;-71
2022/01/18 03:12:19;;;;;;;9.90;4.20;;;;;;;-1.73;69.79;100809.08;105857;1276;138668;-70
2022/01/18 03:14:50;;;;;;;10.30;4.90;;;;;;;-1.72;70.06;100811.48;106024;1276;108784;-70
2022/01/18 03:17:23;;;;;;;11.50;5.60;;;;;;;-1.71;70.01;100808.60;105806;1275;138711;-70
2022/01/18 03:19:55;;;;;;;11.60;5.00;;;;;;;-1.72;70.30;100806.70;105972;1274;97881;-70
2022/01/18 03:22:28;;;;;;;10.60;4.80;;;;;;;-1.74;70.46;100811.09;105892;1275;139466;-69
2022/01/18 03:25:02;;;;;;;13.80;5.60;;;;;;;-1.76;70.50;100813.59;107512;1276;112620;-70
2022/01/18 03:30:24;;;;;;;12.30;5.30;;;;;;;-1.84;70.85;100831.27;105864;1276;139693;-69
2022/01/18 03:32:56;;;;;;;11.30;4.70;;;;;;;-1.87;70.93;100836.14;105856;1276;98152;-69
2022/01/18 03:35:28;;;;;;;11.10;4.40;;;;;;;-1.90;70.75;100835.04;105875;1276;138783;-70
2022/01/18 03:38:00;;;;;;;8.60;4.90;;;;;;;-1.92;71.18;100841.80;105990;1276;112540;-69
2022/01/18 03:40:34;;;;;;;10.30;4.40;;;;;;;-1.92;71.17;100843.35;107424;1276;140190;-70
2022/01/18 03:43:10;;;;;;;11.00;4.50;;;;;;;-1.88;71.20;100846.85;107572;1275;108997;-71
2022/01/18 03:45:45;;;;;;;10.20;4.60;;;;;;;-1.84;71.49;100847.30;107551;1276;95943;-70
2022/01/18 03:48:27;;;;;;;16.40;5.00;;;;;;;-1.80;71.35;100850.64;107445;1276;137905;-70
2022/01/18 03:51:00;;;;;;;13.70;4.90;;;;;;;-1.78;71.52;100858.54;107622;1275;112498;-70
2022/01/18 03:53:32;;;;;;;14.40;4.90;;;;;;;-1.79;71.28;100862.76;107435;1274;139170;-70
2022/01/18 03:56:05;;;;;;;9.30;4.20;;;;;;;-1.81;71.50;100869.69;107597;1275;109186;-70
2022/01/18 03:58:37;;;;;;;11.70;4.50;;;;;;;-1.83;71.39;100868.44;107460;1274;138424;-70
2022/01/18 04:01:09;;;;;;;9.40;4.00;;;;;;;-1.85;71.34;100873.85;107546;1276;96121;-70
2022/01/18 04:03:41;;;;;;;12.40;4.20;;;;;;;-1.87;71.55;100881.66;107556;1275;112629;-70
2022/01/18 04:06:13;;;;;;;9.20;3.90;;;;;;;-1.86;71.55;100886.44;106179;1275;139097;-70
2022/01/18 04:08:45;;;;;;;7.00;3.60;;;;;;;-1.84;71.95;100897.91;106119;1276;108620;-69
2022/01/18 04:11:17;;;;;;;9.10;4.00;;;;;;;-1.79;71.76;100901.46;106103;1276;139399;-70
2022/01/18 04:13:49;;;;;;;12.70;4.20;;;;;;;-1.78;71.55;100902.19;106089;1274;97753;-70
2022/01/18 04:16:21;;;;;;;10.30;4.20;;;;;;;-1.77;71.79;100901.88;105962;1276;138136;-70
2022/01/18 04:18:58;;;;;;;10.50;4.40;;;;;;;-1.77;71.70;100895.38;105999;1274;108878;-70
2022/01/18 04:27:18;;;;;;;12.20;4.50;;;;;;;-1.82;71.83;100916.04;105779;1281;97818;-69
2022/01/18 04:29:50;;;;;;;11.40;4.30;;;;;;;-1.85;72.16;100921.40;105544;1281;139615;-70
2022/01/18 04:32:22;;;;;;;8.50;3.90;;;;;;;-1.88;72.13;100926.61;105681;1281;107908;-70
2022/01/18 04:34:54;;;;;;;7.40;3.90;;;;;;;-1.89;72.05;100926.75;105521;1281;138800;-69
2022/01/18 04:37:26;;;;;;;9.60;3.70;;;;;;;-1.89;72.28;100923.52;105615;1281;97967;-69
2022/01/18 04:39:59;;;;;;;9.70;3.60;;;;;;;-1.88;72.28;100929.69;105487;1279;116662;-69
2022/01/18 04:42:41;;;;;;;11.20;4.00;;;;;;;-1.84;72.45;100935.08;105640;1281;138041;-69
2022/01/18 04:51:00;;;;;;;11.10;3.90;;;;;;;-1.75;72.57;100949.83;105785;1281;97879;-69
2022/01/18 04:53:32;;;;;;;10.80;4.50;;;;;;;-1.73;72.72;100953.80;106919;1281;137948;-70
2022/01/18 04:56:10;;;;;;;9.30;3.80;;;;;;;-1.72;72.25;100960.64;106635;1281;112826;-70
2022/01/18 04:58:42;;;;;;;12.20;4.10;;;;;;;-1.71;72.47;100964.24;105614;1281;138180;-70
2022/01/18 05:01:15;;;;;;;7.70;3.30;;;;;;;-1.71;72.65;100972.45;105799;1276;107472;-70
2022/01/18 05:03:47;;;;;;;7.70;3.20;;;;;;;-1.69;72.47;100981.02;106052;1276;97839;-70
2022/01/18 05:06:20;;;;;;;8.60;3.00;;;;;;;-1.65;72.86;100988.27;105928;1275;138471;-70
2022/01/18 05:08:53;;;;;;;10.10;3.20;;;;;;;-1.60;72.51;100988.45;105952;1277;112494;-70
2022/01/18 05:11:26;;;;;;;6.70;3.00;;;;;;;-1.54;72.96;100988.29;105987;1276;139392;-69
2022/01/18 05:14:10;;;;;;;9.00;3.60;;;;;;;-1.48;72.72;100995.27;105989;1276;108922;-69
2022/01/18 05:16:51;;;;;;;10.50;3.20;;;;;;;-1.42;72.70;101000.56;105940;1275;138719;-69
2022/01/18 05:19:38;;;;;;;8.50;3.30;;;;;;;-1.38;72.70;101004.11;106022;1274;97883;-69
2022/01/18 05:25:01;;;;;;;10.50;3.40;;;;;;;-1.31;73.09;100998.66;106020;1274;106816;-69
2022/01/18 05:27:33;;;;;;;7.50;3.00;;;;;;;-1.31;72.38;100993.52;105981;1276;107760;-70
2022/01/18 05:30:07;;;;;;;8.80;4.00;;;;;;;-1.33;72.84;100997.75;105840;1276;138438;-69
2022/01/18 05:32:39;;;;;;;10.50;3.30;;;;;;;-1.36;72.28;100999.37;106074;1276;97725;-69
2022/01/18 05:35:11;;;;;;;7.20;3.20;;;;;;;-1.39;72.58;100999.64;106092;1274;138546;-70
2022/01/18 05:37:43;;;;;;;8.60;3.50;;;;;;;-1.41;72.87;100994.13;105985;1276;108951;-69
2022/01/18 05:40:16;;;;;;;9.30;3.40;;;;;;;-1.42;72.95;100996.81;105975;1274;107262;-70
2022/01/18 05:42:48;;;;;;;8.60;3.50;;;;;;;-1.42;72.66;100997.34;105838;1276;138144;-70
2022/01/18 05:45:21;;;;;;;10.40;3.50;;;;;;;-1.40;73.04;101000.97;106025;1276;98022;-71
2022/01/18 05:47:52;;;;;;;8.30;3.20;;;;;;;-1.39;73.14;101000.31;105953;1276;138622;-71
2022/01/18 05:50:25;;;;;;;12.70;3.90;;;;;;;-1.41;73.07;100999.58;106039;1276;108759;-70
2022/01/18 05:52:57;;;;;;;8.00;3.00;;;;;;;-1.45;73.21;101001.84;105923;1275;138199;-70
2022/01/18 05:55:29;;;;;;;7.20;3.30;;;;;;;-1.49;72.88;100998.98;106009;1275;97970;-69
2022/01/18 05:58:01;;;;;;;10.10;3.50;;;;;;;-1.55;73.24;100997.81;105975;1276;98402;-70
2022/01/18 06:00:34;;;;;;;9.50;3.20;;;;;;;-1.61;73.22;101003.42;105882;1274;139732;-70
2022/01/18 06:03:13;;;;;;;6.90;2.60;;;;;;;-1.65;73.41;101004.51;106011;1276;108884;-70
2022/01/18 06:08:35;;;;;;;8.50;2.80;;;;;;;-1.66;73.73;101008.73;107541;1275;96465;-70
2022/01/18 06:11:07;;;;;;;7.10;3.00;;;;;;;-1.64;74.23;101012.86;106240;1275;138408;-71
2022/01/18 06:13:39;;;;;;;7.20;3.00;;;;;;;-1.65;73.88;101013.54;107516;1276;112591;-70
2022/01/18 06:16:11;;;;;;;12.20;3.60;;;;;;;-1.65;73.83;101016.95;107195;1274;108796;-70
2022/01/18 06:18:43;;;;;;;8.90;2.80;;;;;;;-1.63;74.24;101022.09;105859;1276;138301;-71
2022/01/18 06:21:15;;;;;;;10.50;3.10;;;;;;;-1.63;74.27;101019.38;106021;1276;97810;-71
2022/01/18 06:23:47;;;;;;;10.40;3.50;;;;;;;-1.64;74.20;101025.84;105957;1276;139075;-69
2022/01/18 06:26:19;;;;;;;8.30;3.10;;;;;;;-1.65;74.37;101030.59;105781;1275;112506;-70
2022/01/18 06:28:51;;;;;;;10.00;3.40;;;;;;;-1.65;74.62;101031.77;105795;1275;138826;-69
2022/01/18 06:31:23;;;;;;;6.60;3.00;;;;;;;-1.65;74.55;101035.02;106023;1276;108362;-69
2022/01/18 06:33:55;;;;;;;9.00;2.80;;;;;;;-1.63;74.51;101031.33;105864;1274;97952;-70
2022/01/18 06:36:28;;;;;;;9.70;3.00;;;;;;;-1.59;74.65;101034.87;105877;1274;138099;-70
2022/01/18 06:39:00;;;;;;;7.90;3.20;;;;;;;-1.56;74.67;101035.48;106033;1275;112384;-70
2022/01/18 06:41:32;;;;;;;8.60;3.10;;;;;;;-1.53;74.70;101042.71;105798;1275;138140;-70
2022/01/18 06:44:04;;;;;;;9.20;2.70;;;;;;;-1.50;74.35;101041.08;106117;1275;108921;-70
2022/01/18 06:46:36;;;;;;;9.60;2.90;;;;;;;-1.49;74.63;101039.57;105926;1276;97964;-70
2022/01/18 06:49:09;;;;;;;9.10;3.20;;;;;;;-1.48;74.76;101044.20;107380;1276;137520;-70
2022/01/18 06:51:40;;;;;;;8.00;3.10;;;;;;;-1.47;74.83;101046.64;105892;1277;112141;-70
2022/01/18 06:54:16;;;;;;;8.70;2.90;;;;;;;-1.45;74.64;101053.67;105803;1276;138068;-71
2022/01/18 06:56:50;;;;;;;8.50;3.00;;;;;;;-1.42;74.52;101053.45;105735;1276;108829;-69
2022/01/18 06:59:22;;;;;;;8.20;2.70;;;;;;;-1.38;74.73;101058.69;107386;1276;138968;-69
2022/01/18 07:01:55;;;;;;;8.10;2.60;;;;;;;-1.31;74.65;101057.67;107420;1276;96536;-71
2022/01/18 07:04:27;;;;;;;8.60;3.10;;;;;;;-1.21;74.75;101062.92;106840;1275;110998;-70
2022/01/18 07:06:59;;;;;;;6.70;2.80;;;;;;;-1.05;74.62;101070.17;105597;1276;138096;-70
2022/01/18 07:09:32;;;;;;;9.70;2.80;;;;;;;-0.88;74.58;101074.43;105971;1274;108808;-70
2022/01/18 07:12:10;;;;;;;8.30;3.20;;;;;;;-0.73;74.20;101070.39;105641;1276;140109;-70
2022/01/18 07:14:43;;;;;;;7.40;2.60;;;;;;;-0.52;74.32;101067.02;105961;1275;97831;-71
2022/01/18 07:17:15;;;;;;;11.40;3.20;;;;;;;-0.32;73.89;101073.19;105547;1276;138921;-70
2022/01/18 07:19:46;;;;;;;9.20;2.70;;;;;;;-0.10;73.47;101073.37;105870;1276;108968;-71
2022/01/18 07:22:18;;;;;;;7.60;2.80;;;;;;;0.12;73.18;101077.48;105837;1274;108952;-69
2022/01/18 07:24:55;;;;;;;6.80;2.90;;;;;;;0.35;72.88;101086.92;105664;1276;137977;-70
2022/01/18 07:27:28;;;;;;;7.30;2.90;;;;;;;0.62;72.58;101089.55;105920;1276;97843;-69
2022/01/18 07:30:00;;;;;;;10.60;2.80;;;;;;;0.88;72.27;101094.05;105663;1275;137485;-69
2022/01/18 07:32:32;;;;;;;8.10;3.40;;;;;;;1.16;71.80;101098.39;105630;1274;108305;-69
2022/01/18 07:35:04;;;;;;;6.90;3.10;;;;;;;1.41;71.21;101098.35;105812;1275;139209;-68
2022/01/18 07:37:36;;;;;;;7.60;3.00;;;;;;;1.63;70.58;101105.45;107306;1276;96923;-70
2022/01/18 07:40:11;;;;;;;7.10;2.70;;;;;;;1.89;70.26;101111.36;106835;1276;97847;-70
2022/01/18 07:42:43;;;;;;;7.00;3.00;;;;;;;2.11;69.88;101117.92;106057;1276;139194;-69
2022/01/18 07:45:15;;;;;;;8.80;3.20;;;;;;;2.37;69.50;101125.54;106021;1276;109037;-70
2022/01/18 07:47:46;;;;;;;8.10;3.10;;;;;;;2.65;68.92;101130.05;105882;1276;137763;-70
2022/01/18 07:50:18;;;;;;;8.90;3.30;;;;;;;2.89;68.30;101135.02;105744;1276;98228;-70
2022/01/18 07:52:50;;;;;;;8.50;3.20;;;;;;;3.05;67.51;101135.94;105696;1274;138206;-69
2022/01/18 07:55:22;;;;;;;7.70;2.90;;;;;;;3.26;67.47;101143.40;105852;1275;112224;-70
2022/01/18 07:57:57;;;;;;;6.60;2.50;;;;;;;3.56;67.47;101136.52;105851;1274;107849;-69
2022/01/18 08:00:30;;;;;;;10.50;3.20;;;;;;;3.85;66.65;101134.06;105808;1276;139010;-70
2022/01/18 08:03:02;;;;;;;7.70;2.80;;;;;;;4.13;65.78;101137.91;107347;1275;95915;-69
2022/01/18 08:05:34;;;;;;;8.20;2.90;;;;;;;4.41;65.66;101148.64;106028;1276;137533;-72
2022/01/18 08:08:12;;;;;;;8.80;4.10;;;;;;;4.72;64.97;101146.10;105939;1276;112071;-70
2022/01/18 08:10:44;;;;;;;8.80;3.20;;;;;;;5.01;64.31;101149.52;105852;1276;109206;-71
2022/01/18 08:13:16;;;;;;;11.20;2.90;;;;;;;5.32;64.35;101155.70;105682;1276;138796;-69
2022/01/18 08:15:57;;;;;;;5.20;2.60;;;;;;;5.68;63.38;101155.29;105849;1276;97832;-70
2022/01/18 08:18:30;;;;;;;9.00;3.00;;;;;;;6.00;63.13;101160.38;105865;1276;138593;-69
2022/01/18 08:21:02;;;;;;;7.30;3.20;;;;;;;6.35;62.31;101156.61;106018;1276;111558;-69
2022/01/18 08:23:34;;;;;;;6.20;2.90;;;;;;;6.56;61.28;101161.08;105857;1276;137991;-71
2022/01/18 08:26:06;;;;;;;5.30;3.00;;;;;;;6.56;60.73;101159.00;105978;1276;107968;-71
2022/01/18 08:28:38;;;;;;;5.00;2.80;;;;;;;6.34;59.71;101164.71;105811;1275;97884;-69
2022/01/18 08:31:10;;;;;;;8.00;3.40;;;;;;;5.98;59.69;101176.77;105875;1274;138177;-71
2022/01/18 08:33:42;;;;;;;10.10;3.70;;;;;;;5.64;60.05;101188.40;107439;1276;111083;-70
2022/01/18 08:36:15;;;;;;;10.30;3.90;;;;;;;5.32;60.35;101189.85;106118;1276;138166;-69
2022/01/18 08:38:47;;;;;;;6.60;2.80;;;;;;;5.03;60.39;101191.25;105853;1275;109093;-70
2022/01/18 08:41:19;;;;;;;8.80;3.00;;;;;;;4.72;60.62;101198.98;105782;1275;137913;-70
2022/01/18 08:43:51;;;;;;;9.30;3.50;;;;;;;4.45;61.13;101208.08;105902;1276;97842;-71
2022/01/18 08:46:24;;;;;;;9.40;3.20;;;;;;;4.28;61.43;101211.55;105941;1276;112798;-70
2022/01/18 08:48:56;;;;;;;10.10;3.40;;;;;;;4.13;61.85;101214.17;105673;1275;138722;-69
2022/01/18 08:51:30;;;;;;;9.00;3.20;;;;;;;3.98;61.76;101222.11;105828;1276;108810;-70
2022/01/18 08:54:04;;;;;;;10.30;3.80;;;;;;;3.91;62.11;101230.98;105777;1276;137761;-69
2022/01/18 08:56:36;;;;;;;7.40;3.50;;;;;;;4.00;62.53;101237.77;105937;1276;97874;-70
2022/01/18 08:59:25;;;;;;;8.60;3.80;;;;;;;4.13;62.74;101239.46;105828;1276;138709;-69
2022/01/18 09:01:58;;;;;;;9.60;4.20;;;;;;;4.17;62.20;101246.92;105991;1275;108867;-69
2022/01/18 09:04:34;;;;;;;10.50;4.10;;;;;;;4.25;62.37;101253.69;107337;1276;106581;-71
2022/01/18 09:07:09;;;;;;;7.40;3.20;;;;;;;4.34;62.21;101257.92;107273;1276;138197;-71
2022/01/18 09:09:44;;;;;;;9.20;3.30;;;;;;;4.46;62.14;101257.86;107397;1276;96157;-71
2022/01/18 09:12:17;;;;;;;8.10;3.30;;;;;;;4.48;61.67;101260.80;107097;1276;138533;-72
2022/01/18 09:14:49;;;;;;;7.80;3.20;;;;;;;4.54;61.79;101270.16;105796;1276;108868;-70
2022/01/18 09:17:21;;;;;;;8.50;3.50;;;;;;;4.70;61.98;101275.11;105607;1275;138614;-71
2022/01/18 09:19:53;;;;;;;9.90;3.70;;;;;;;4.95;61.59;101271.02;105690;1276;97941;-72
2022/01/18 09:22:25;;;;;;;10.40;3.30;;;;;;;5.11;60.72;101273.17;105865;1276;97934;-70
2022/01/18 09:24:57;;;;;;;6.50;3.30;;;;;;;5.20;60.51;101274.27;105770;1276;137957;-70
2022/01/18 09:27:29;;;;;;;9.40;3.50;;;;;;;5.22;60.02;101272.57;105789;1276;107919;-71
2022/01/18 09:30:02;;;;;;;7.60;3.40;;;;;;;5.29;60.34;101272.77;105631;1276;137880;-71
2022/01/18 09:32:34;;;;;;;9.60;3.80;;;;;;;5.44;60.19;101279.06;105433;1276;99417;-71
2022/01/18 09:35:07;;;;;;;7.20;3.70;;;;;;;5.64;59.73;101274.85;105448;1275;137730;-71
2022/01/18 09:37:39;;;;;;;11.10;3.60;;;;;;;5.74;59.31;101280.77;106911;1275;112610;-70
2022/01/18 09:40:14;;;;;;;14.10;4.60;;;;;;;5.60;59.23;101284.50;107031;1274;108958;-70
2022/01/18 09:42:47;;;;;;;11.40;3.50;;;;;;;5.45;59.10;101294.42;106794;1276;139854;-70
2022/01/18 09:45:20;;;;;;;10.30;4.00;;;;;;;5.34;59.25;101303.48;107135;1276;97393;-70
2022/01/18 09:47:54;;;;;;;10.40;4.50;;;;;;;5.44;59.75;101313.56;106820;1275;139826;-70
2022/01/18 09:50:31;;;;;;;10.70;4.10;;;;;;;5.63;59.41;101309.18;107121;1276;112577;-70
2022/01/18 09:53:07;;;;;;;8.10;3.40;;;;;;;5.87;59.79;101314.84;107099;1275;140065;-70
2022/01/18 09:55:41;;;;;;;10.20;3.90;;;;;;;6.23;59.49;101321.70;107323;1275;108936;-70
2022/01/18 09:58:13;;;;;;;12.30;4.50;;;;;;;6.61;59.21;101326.96;107318;1275;96090;-70
2022/01/18 10:00:46;;;;;;;11.10;4.60;;;;;;;7.01;59.03;101337.02;107115;1275;140720;-70
2022/01/18 10:03:33;;;;;;;9.50;4.30;;;;;;;7.50;58.05;101327.78;107257;1275;111405;-71
2022/01/18 10:06:07;;;;;;;10.50;4.60;;;;;;;7.83;56.87;101328.90;107093;1275;138806;-71
2022/01/18 10:08:42;;;;;;;8.90;4.20;;;;;;;7.99;56.05;101327.27;105702;1276;109966;-71
2022/01/18 10:11:17;;;;;;;8.40;3.80;;;;;;;8.03;55.67;101328.98;105557;1275;138645;-70
2022/01/18 10:13:50;;;;;;;13.00;4.50;;;;;;;8.08;55.68;101330.70;105551;1276;97730;-71
2022/01/18 10:16:24;;;;;;;10.60;4.10;;;;;;;8.21;55.24;101327.16;105712;1276;112204;-71
2022/01/18 10:19:02;;;;;;;8.30;4.10;;;;;;;8.35;55.26;101328.32;107137;1276;137987;-73
2022/01/18 10:21:39;;;;;;;9.50;4.30;;;;;;;8.52;55.05;101331.88;107454;1275;110516;-71
2022/01/18 10:24:17;;;;;;;9.40;4.30;;;;;;;8.61;54.86;101332.16;107289;1275;138170;-70
2022/01/18 10:26:50;;;;;;;8.50;4.00;;;;;;;8.69;54.76;101336.27;106951;1275;96182;-72
2022/01/18 10:29:28;;;;;;;8.70;3.70;;;;;;;8.83;54.86;101339.98;105522;1276;138953;-72
2022/01/18 10:32:10;;;;;;;9.70;3.90;;;;;;;9.11;54.51;101345.14;105518;1274;109404;-71
2022/01/18 10:37:29;;;;;;;;;;;;;;;9.42;53.62;101351.79;105516;1276;137676;-71
2022/01/18 10:40:04;;;;;;;9.40;4.00;;;;;;;9.53;53.51;101364.18;105548;1274;97952;-71
2022/01/18 10:42:43;;;;;;;9.20;3.80;;;;;;;9.73;53.81;101367.79;105560;1276;138767;-72
2022/01/18 10:45:27;;;;;;;8.80;3.70;;;;;;;10.06;53.29;101369.84;105517;1276;108714;-72
2022/01/18 10:48:04;;;;;;;8.20;3.50;;;;;;;10.19;52.37;101375.23;105398;1275;138780;-72
2022/01/18 10:50:38;;;;;;;9.20;4.00;;;;;;;10.30;52.44;101378.44;105651;1275;98111;-71
2022/01/18 10:53:15;;;;;;;10.20;4.10;;;;;;;10.45;52.21;101379.29;105425;1276;138650;-71
2022/01/18 10:55:49;;;;;;;7.90;3.40;;;;;;;10.45;51.38;101373.03;105558;1275;110436;-71
2022/01/18 10:58:23;;;;;;;15.20;8.40;;;;;;;10.33;51.27;101372.14;105586;1276;108965;-71
2022/01/18 11:00:55;;;;;;;12.10;3.90;;;;;;;10.32;51.18;101374.77;105514;1275;139872;-71
2022/01/18 11:03:27;;;;;;;7.60;3.80;;;;;;;10.37;51.26;101372.09;105623;1276;97929;-70
2022/01/18 11:06:16;;;;;;;9.50;4.20;;;;;;;10.44;51.29;101374.10;105450;1276;138064;-70
2022/01/18 11:08:53;;;;;;;12.50;3.80;;;;;;;10.55;51.05;101379.30;105371;1275;112182;-72
2022/01/18 11:11:29;;;;;;;10.10;3.60;;;;;;;10.62;51.27;101384.10;105068;1275;139536;-71
2022/01/18 11:14:02;;;;;;;7.00;3.80;;;;;;;10.65;50.84;101383.88;105597;1275;107503;-70
2022/01/18 11:16:40;;;;;;;7.50;3.80;;;;;;;10.66;50.71;101383.52;105605;1274;97903;-70
2022/01/18 11:19:28;;;;;;;10.10;3.90;;;;;;;10.55;49.94;101385.06;105664;1276;139057;-70
2022/01/18 11:22:03;;;;;;;9.70;3.70;;;;;;;10.36;49.58;101379.92;105710;1276;112409;-70
2022/01/18 11:24:38;;;;;;;7.10;3.50;;;;;;;10.18;49.76;101387.42;105790;1273;138219;-71
2022/01/18 11:27:13;;;;;;;8.50;4.00;;;;;;;9.99;49.93;101393.04;105754;1275;108241;-70
2022/01/18 11:29:48;;;;;;;8.90;3.90;;;;;;;9.87;50.05;101390.92;106959;1276;138098;-70
2022/01/18 11:32:21;;;;;;;10.30;3.90;;;;;;;9.63;50.02;101393.25;105767;1275;97928;-69
2022/01/18 11:35:05;;;;;;;8.70;3.50;;;;;;;9.56;50.42;101398.36;105776;1275;113443;-69
2022/01/18 11:37:47;;;;;;;10.20;3.70;;;;;;;9.57;50.46;101403.04;105728;1274;138444;-69
2022/01/18 11:40:20;;;;;;;7.90;3.70;;;;;;;9.51;50.35;101402.23;105682;1276;108062;-70
2022/01/18 11:42:55;;;;;;;9.80;3.90;;;;;;;9.40;50.28;101405.98;105625;1276;137901;-70
2022/01/18 11:45:38;;;;;;;10.20;3.80;;;;;;;9.34;50.47;101405.34;105831;1276;97868;-72
2022/01/18 11:48:14;;;;;;;9.30;3.60;;;;;;;9.22;50.01;101403.00;105704;1276;137978;-71
2022/01/18 11:50:50;;;;;;;8.70;4.10;;;;;;;9.06;50.35;101404.51;105740;1276;107962;-70
2022/01/18 11:53:43;;;;;;;23.80;11.00;;;;;;;8.95;50.13;101411.52;105628;1276;138382;-71
2022/01/18 11:56:31;;;;;;;14.50;4.20;;;;;;;8.84;50.57;101409.52;105911;1276;98153;-70
2022/01/18 11:59:17;;;;;;;9.80;4.30;;;;;;;8.70;50.74;101411.52;105806;1275;97868;-70
2022/01/18 12:01:51;;;;;;;11.90;4.50;;;;;;;8.62;50.59;101406.54;107288;1276;137572;-71
2022/01/18 12:05:14;;;;;;;9.30;3.80;;;;;;;8.56;51.07;101406.04;106990;1276;109000;-71
2022/01/18 12:08:01;;;;;;;11.00;3.90;;;;;;;8.49;50.79;101406.95;105368;1281;137995;-71
2022/01/18 12:10:47;;;;;;;12.70;3.50;;;;;;;8.42;51.04;101400.55;105526;1279;97845;-70
2022/01/18 12:13:37;;;;;;;8.90;3.80;;;;;;;8.33;51.21;101407.88;105504;1279;137807;-70
2022/01/18 12:16:20;;;;;;;8.60;3.80;;;;;;;8.27;51.31;101412.91;105325;1281;112526;-69
2022/01/18 12:19:05;;;;;;;14.40;4.10;;;;;;;8.24;51.65;101420.54;105298;1281;138036;-69
2022/01/18 12:21:46;;;;;;;7.50;3.40;;;;;;;8.26;51.82;101422.79;105453;1281;109131;-70
2022/01/18 12:24:21;;;;;;;8.00;4.10;;;;;;;8.18;51.76;101431.48;105419;1279;139398;-70
2022/01/18 12:27:03;;;;;;;12.80;4.70;;;;;;;8.10;52.01;101440.17;105732;1280;97828;-70
2022/01/18 12:30:00;;;;;;;10.10;4.90;;;;;;;7.98;52.08;101437.60;105693;1279;137996;-69
2022/01/18 12:32:57;;;;;;;11.00;4.60;;;;;;;7.90;52.42;101436.23;105601;1279;108957;-70
2022/01/18 12:35:29;;;;;;;16.80;4.80;;;;;;;7.74;52.29;101443.71;105491;1280;109021;-70